Bookmark and Share
Track history (hours):
 

Invader

More information available from US FCC via Universal Licensing System and Coast Guard Vessel Documentation Center.

Last reported at 2012-Dec-08 06:33 UTC. Time now 2014-Apr-21 10:07 UTC.
Position N 29°15' W 089°22'.
Warning: this ship's position is years out of date!

Length 40 m; draft 3 m.

Type: Passenger vessel. MMSI: 367053990.

NotesDate/timePositionNaut miles runAvg speedWind from/ knotsBaromVisibWave heightAir tempDewpointWater temp
2012-Dec-08 06:33N 29°15' W 089°22'0 0.0
2012-Dec-08 05:37N 29°15' W 089°22'1 0.5
2012-Dec-08 04:33N 29°15' W 089°22'1 0.5
2012-Dec-08 03:33N 29°15' W 089°22'0 0.0
2012-Dec-08 02:33N 29°15' W 089°22'0 0.0
2012-Dec-08 01:33N 29°15' W 089°22'8 8.0
2012-Dec-08 00:33N 29°23' W 089°18'4 0.6
2012-Dec-07 18:34N 29°26' W 089°15'1111.0
2012-Dec-07 17:33N 29°16' W 089°21'1 0.5
2012-Dec-07 16:33N 29°15' W 089°22'0 0.1
2012-Dec-07 15:33N 29°15' W 089°22'0 0.1
2012-Dec-07 14:33N 29°15' W 089°22'0 0.0
2012-Dec-07 13:33N 29°15' W 089°22'0 0.0
2012-Dec-07 12:33N 29°15' W 089°22'0 0.0
2012-Dec-07 11:37N 29°15' W 089°22'0 0.0
2012-Dec-07 10:33N 29°15' W 089°22'0 0.0
2012-Dec-07 09:33N 29°15' W 089°22'0 0.0
2012-Dec-07 08:33N 29°15' W 089°22'0 0.0
2012-Dec-07 07:33N 29°15' W 089°22'0 0.3
2012-Dec-07 06:33N 29°15' W 089°21'0 0.0
2012-Dec-07 05:37N 29°15' W 089°21'0 0.0
2012-Dec-07 04:33N 29°15' W 089°21'0 0.0
2012-Dec-07 03:33N 29°15' W 089°21'8 8.3
2012-Dec-07 02:33N 29°23' W 089°18'1413.6
2012-Dec-07 01:34N 29°19' W 089°03'7 1.7
2012-Dec-06 21:33N 29°14' W 088°58'1919.1
2012-Dec-06 20:33N 29°25' W 089°16'1110.8
2012-Dec-06 19:34N 29°15' W 089°22'0 0.0
2012-Dec-06 18:33N 29°15' W 089°22'0 0.0
2012-Dec-06 17:33N 29°15' W 089°22'1 1.1
2012-Dec-06 16:34N 29°16' W 089°21'9 9.0
2012-Dec-06 15:34N 29°25' W 089°19'6 0.4
2012-Dec-05 22:29N 29°26' W 089°12'1212.5
2012-Dec-05 21:34N 29°18' W 089°21'2 2.4
2012-Dec-05 20:34N 29°15' W 089°22'0 0.3
2012-Dec-05 19:34N 29°16' W 089°22'0 0.0
2012-Dec-05 18:34N 29°16' W 089°22'0 0.0
2012-Dec-05 17:34N 29°16' W 089°22'1 1.3
2012-Dec-05 16:34N 29°17' W 089°21'8 7.9
2012-Dec-05 15:33N 29°24' W 089°19'1414.2
2012-Dec-05 14:33N 29°28' W 089°03'15 7.7
2012-Dec-05 12:33N 29°36' W 088°48'3015.0
2012-Dec-05 10:33N 29°22' W 089°18'8 7.5
2012-Dec-05 09:33N 29°15' W 089°21'0 0.0
2012-Dec-05 08:33N 29°15' W 089°21'0 0.0
2012-Dec-05 07:33N 29°15' W 089°21'0 0.3
2012-Dec-05 06:33N 29°15' W 089°21'0 0.3
2012-Dec-05 05:39N 29°15' W 089°21'0 0.1
2012-Dec-05 04:33N 29°15' W 089°22'0 0.3
2012-Dec-05 03:33N 29°16' W 089°22'2 2.1
2012-Dec-05 02:33N 29°18' W 089°21'9 8.8
2012-Dec-05 01:34N 29°24' W 089°14'1313.2
2012-Dec-05 00:33N 29°16' W 089°02'1312.9
2012-Dec-04 23:33N 29°27' W 088°54'22 1.6
2012-Dec-04 09:34N 29°22' W 089°18'7 7.4
2012-Dec-04 08:34N 29°15' W 089°22'0 0.0
2012-Dec-04 07:33N 29°15' W 089°22'0 0.0
2012-Dec-04 06:34N 29°15' W 089°22'0 0.0
2012-Dec-04 05:37N 29°15' W 089°22'0 0.0
2012-Dec-04 04:33N 29°15' W 089°22'0 0.1
2012-Dec-04 03:34N 29°15' W 089°22'1 1.0
2012-Dec-04 02:34N 29°16' W 089°21'9 9.1
2012-Dec-04 01:33N 29°25' W 089°19'3 0.2
2012-Dec-03 09:34N 29°22' W 089°18'7 6.9
2012-Dec-03 08:33N 29°15' W 089°22'0 0.0
2012-Dec-03 07:33N 29°15' W 089°22'0 0.0
2012-Dec-03 06:33N 29°15' W 089°22'0 0.0
2012-Dec-03 05:37N 29°15' W 089°22'0 0.4
2012-Dec-03 04:33N 29°15' W 089°21'1 0.7
2012-Dec-03 03:33N 29°16' W 089°22'6 6.1
2012-Dec-03 02:34N 29°21' W 089°18'5 0.3
2012-Dec-02 09:33N 29°25' W 089°17'1110.8
2012-Dec-02 08:33N 29°15' W 089°21'0 0.2
2012-Dec-02 07:33N 29°15' W 089°22'0 0.1
2012-Dec-02 06:33N 29°15' W 089°22'0 0.1
2012-Dec-02 05:38N 29°15' W 089°22'0 0.0
2012-Dec-02 04:33N 29°15' W 089°22'0 0.0
2012-Dec-02 03:33N 29°15' W 089°22'0 0.0
2012-Dec-02 02:33N 29°15' W 089°22'0 0.0
2012-Dec-02 01:33N 29°15' W 089°22'0 0.0
2012-Dec-02 00:33N 29°15' W 089°22'0 0.0
2012-Dec-01 23:33N 29°15' W 089°22'0 0.0
2012-Dec-01 22:33N 29°15' W 089°22'0 0.0
2012-Dec-01 21:33N 29°15' W 089°22'8 7.5
2012-Dec-01 20:33N 29°22' W 089°18'3 0.4
2012-Dec-01 12:33N 29°25' W 089°19'1010.7
2012-Dec-01 11:36N 29°15' W 089°21'0 0.0
2012-Dec-01 10:33N 29°15' W 089°21'0 0.0
2012-Dec-01 09:33N 29°15' W 089°21'0 0.0
2012-Dec-01 08:33N 29°15' W 089°21'0 0.0
2012-Dec-01 07:33N 29°15' W 089°21'0 0.0
2012-Dec-01 06:33N 29°15' W 089°21'0 0.0
2012-Dec-01 05:36N 29°15' W 089°21'0 0.0
2012-Dec-01 04:33N 29°15' W 089°21'0 0.0
2012-Dec-01 03:33N 29°15' W 089°21'0 0.3
2012-Dec-01 02:33N 29°15' W 089°21'0 0.3
2012-Dec-01 01:33N 29°15' W 089°22'4 3.7
2012-Dec-01 00:34N 29°19' W 089°19'9 8.6
2012-Nov-30 23:34N 29°23' W 089°11'11 0.9
2012-Nov-30 10:31N 29°23' W 088°58'1818.9
2012-Nov-30 09:34N 29°24' W 089°19'9 9.3
2012-Nov-30 08:33N 29°16' W 089°22'0 0.0
2012-Nov-30 07:33N 29°16' W 089°22'0 0.0
2012-Nov-30 06:34N 29°16' W 089°22'0 0.0
2012-Nov-30 05:36N 29°16' W 089°22'0 0.3
2012-Nov-30 04:33N 29°15' W 089°22'0 0.0
2012-Nov-30 03:33N 29°15' W 089°22'0 0.3
2012-Nov-30 02:33N 29°15' W 089°21'0 0.3
2012-Nov-30 01:34N 29°15' W 089°22'2 1.8
2012-Nov-30 00:34N 29°17' W 089°21'9 9.4
2012-Nov-29 23:34N 29°24' W 089°14'1413.6
2012-Nov-29 22:34N 29°16' W 089°02'7 0.7
2012-Nov-29 12:33N 29°21' W 089°08'9 9.9
2012-Nov-29 11:38N 29°22' W 089°18'7 6.5
2012-Nov-29 10:33N 29°15' W 089°22'0 0.0
2012-Nov-29 09:33N 29°15' W 089°22'5 5.1
2012-Nov-29 08:33N 29°20' W 089°19'11 0.6
2012-Nov-28 14:24N 29°24' W 089°07'1011.6
2012-Nov-28 13:33N 29°22' W 089°18'7 6.9
2012-Nov-28 12:33N 29°15' W 089°21'0 0.0
2012-Nov-28 11:37N 29°15' W 089°21'0 0.0
2012-Nov-28 10:33N 29°15' W 089°21'0 0.0
2012-Nov-28 09:33N 29°15' W 089°21'0 0.0
2012-Nov-28 08:33N 29°15' W 089°21'0 0.0
2012-Nov-28 07:33N 29°15' W 089°21'0 0.0
2012-Nov-28 06:33N 29°15' W 089°21'  

Dump ship's entire track history

sailing weather and tide predictions

Invader — WDC6283 — position and weather